sensor_id;sensor_type;location;lat;lon;timestamp;P1;durP1;ratioP1;P2;durP2;ratioP2
2656;SDS011;1338;48.176;11.792;2022-07-01T00:01:50;5.30;;;4.90;;
2656;SDS011;1338;48.176;11.792;2022-07-01T00:04:18;5.83;;;5.33;;
2656;SDS011;1338;48.176;11.792;2022-07-01T00:06:47;6.10;;;5.50;;
2656;SDS011;1338;48.176;11.792;2022-07-01T00:09:15;6.60;;;5.00;;
2656;SDS011;1338;48.176;11.792;2022-07-01T00:11:43;6.63;;;5.77;;
2656;SDS011;1338;48.176;11.792;2022-07-01T00:14:12;5.20;;;4.90;;
2656;SDS011;1338;48.176;11.792;2022-07-01T00:16:41;7.17;;;6.47;;
2656;SDS011;1338;48.176;11.792;2022-07-01T00:19:10;7.40;;;6.70;;
2656;SDS011;1338;48.176;11.792;2022-07-01T00:21:38;7.67;;;7.00;;
2656;SDS011;1338;48.176;11.792;2022-07-01T00:24:07;8.60;;;7.97;;
2656;SDS011;1338;48.176;11.792;2022-07-01T00:26:35;8.37;;;7.77;;
2656;SDS011;1338;48.176;11.792;2022-07-01T00:29:04;8.20;;;7.70;;
2656;SDS011;1338;48.176;11.792;2022-07-01T00:31:32;8.40;;;7.63;;
2656;SDS011;1338;48.176;11.792;2022-07-01T00:34:02;8.57;;;7.80;;
2656;SDS011;1338;48.176;11.792;2022-07-01T00:36:30;9.30;;;8.60;;
2656;SDS011;1338;48.176;11.792;2022-07-01T00:38:58;9.90;;;8.53;;
2656;SDS011;1338;48.176;11.792;2022-07-01T00:41:27;9.13;;;8.33;;
2656;SDS011;1338;48.176;11.792;2022-07-01T00:43:55;9.33;;;8.43;;
2656;SDS011;1338;48.176;11.792;2022-07-01T00:46:24;8.50;;;7.70;;
2656;SDS011;1338;48.176;11.792;2022-07-01T00:48:54;9.00;;;8.20;;
2656;SDS011;1338;48.176;11.792;2022-07-01T00:51:24;9.70;;;8.40;;
2656;SDS011;1338;48.176;11.792;2022-07-01T00:53:53;8.60;;;7.73;;
2656;SDS011;1338;48.176;11.792;2022-07-01T00:56:24;8.23;;;7.63;;
2656;SDS011;1338;48.176;11.792;2022-07-01T00:58:53;9.10;;;8.30;;
2656;SDS011;1338;48.176;11.792;2022-07-01T01:01:23;8.13;;;7.63;;
2656;SDS011;1338;48.176;11.792;2022-07-01T01:03:52;7.97;;;7.20;;
2656;SDS011;1338;48.176;11.792;2022-07-01T01:06:20;8.83;;;8.13;;
2656;SDS011;1338;48.176;11.792;2022-07-01T01:08:50;8.93;;;8.23;;
2656;SDS011;1338;48.176;11.792;2022-07-01T01:11:19;7.87;;;7.23;;
2656;SDS011;1338;48.176;11.792;2022-07-01T01:13:47;8.13;;;7.47;;
2656;SDS011;1338;48.176;11.792;2022-07-01T01:16:16;7.73;;;7.03;;
2656;SDS011;1338;48.176;11.792;2022-07-01T01:18:46;8.40;;;7.60;;
2656;SDS011;1338;48.176;11.792;2022-07-01T01:21:16;7.57;;;6.97;;
2656;SDS011;1338;48.176;11.792;2022-07-01T01:23:45;7.77;;;7.03;;
2656;SDS011;1338;48.176;11.792;2022-07-01T01:26:16;6.40;;;5.90;;
2656;SDS011;1338;48.176;11.792;2022-07-01T01:28:45;7.13;;;6.53;;
2656;SDS011;1338;48.176;11.792;2022-07-01T01:31:14;6.67;;;6.13;;
2656;SDS011;1338;48.176;11.792;2022-07-01T01:33:44;6.20;;;5.80;;
2656;SDS011;1338;48.176;11.792;2022-07-01T01:36:12;5.30;;;4.90;;
2656;SDS011;1338;48.176;11.792;2022-07-01T01:38:42;5.67;;;4.57;;
2656;SDS011;1338;48.176;11.792;2022-07-01T01:41:10;4.17;;;3.87;;
2656;SDS011;1338;48.176;11.792;2022-07-01T01:43:38;4.33;;;4.03;;
2656;SDS011;1338;48.176;11.792;2022-07-01T01:46:07;3.63;;;3.33;;
2656;SDS011;1338;48.176;11.792;2022-07-01T01:48:35;5.43;;;3.80;;
2656;SDS011;1338;48.176;11.792;2022-07-01T01:51:03;3.57;;;3.37;;
2656;SDS011;1338;48.176;11.792;2022-07-01T01:53:32;3.80;;;3.40;;
2656;SDS011;1338;48.176;11.792;2022-07-01T01:56:02;2.60;;;2.40;;
2656;SDS011;1338;48.176;11.792;2022-07-01T01:58:30;2.70;;;2.50;;
2656;SDS011;1338;48.176;11.792;2022-07-01T02:00:58;2.67;;;2.47;;
2656;SDS011;1338;48.176;11.792;2022-07-01T02:03:28;3.53;;;2.90;;
2656;SDS011;1338;48.176;11.792;2022-07-01T02:05:57;2.73;;;2.53;;
2656;SDS011;1338;48.176;11.792;2022-07-01T02:08:25;2.80;;;2.60;;
2656;SDS011;1338;48.176;11.792;2022-07-01T02:10:53;2.70;;;2.50;;
2656;SDS011;1338;48.176;11.792;2022-07-01T02:13:29;2.40;;;2.20;;
2656;SDS011;1338;48.176;11.792;2022-07-01T02:15:57;2.70;;;2.50;;
2656;SDS011;1338;48.176;11.792;2022-07-01T02:18:26;2.60;;;2.40;;
2656;SDS011;1338;48.176;11.792;2022-07-01T02:20:55;2.47;;;2.20;;
2656;SDS011;1338;48.176;11.792;2022-07-01T02:23:23;2.60;;;2.43;;
2656;SDS011;1338;48.176;11.792;2022-07-01T02:25:52;2.60;;;2.30;;
2656;SDS011;1338;48.176;11.792;2022-07-01T02:28:20;2.73;;;2.50;;
2656;SDS011;1338;48.176;11.792;2022-07-01T02:30:49;2.57;;;2.37;;
2656;SDS011;1338;48.176;11.792;2022-07-01T02:33:18;3.10;;;2.40;;
2656;SDS011;1338;48.176;11.792;2022-07-01T02:35:46;2.47;;;2.30;;
2656;SDS011;1338;48.176;11.792;2022-07-01T02:38:15;2.60;;;2.40;;
2656;SDS011;1338;48.176;11.792;2022-07-01T02:40:44;2.30;;;2.20;;
2656;SDS011;1338;48.176;11.792;2022-07-01T02:43:12;2.50;;;2.30;;
2656;SDS011;1338;48.176;11.792;2022-07-01T02:45:42;2.90;;;2.70;;
2656;SDS011;1338;48.176;11.792;2022-07-01T02:48:12;2.93;;;2.60;;
2656;SDS011;1338;48.176;11.792;2022-07-01T02:50:40;2.73;;;2.53;;
2656;SDS011;1338;48.176;11.792;2022-07-01T02:53:08;2.70;;;2.50;;
2656;SDS011;1338;48.176;11.792;2022-07-01T02:55:36;2.70;;;2.50;;
2656;SDS011;1338;48.176;11.792;2022-07-01T02:58:04;2.50;;;2.40;;
2656;SDS011;1338;48.176;11.792;2022-07-01T03:00:33;2.77;;;2.57;;
2656;SDS011;1338;48.176;11.792;2022-07-01T03:03:01;2.90;;;2.70;;
2656;SDS011;1338;48.176;11.792;2022-07-01T03:05:31;3.07;;;2.87;;
2656;SDS011;1338;48.176;11.792;2022-07-01T03:07:59;3.20;;;3.00;;
2656;SDS011;1338;48.176;11.792;2022-07-01T03:10:28;4.20;;;2.93;;
2656;SDS011;1338;48.176;11.792;2022-07-01T03:12:56;2.80;;;2.60;;
2656;SDS011;1338;48.176;11.792;2022-07-01T03:15:26;2.60;;;2.40;;
2656;SDS011;1338;48.176;11.792;2022-07-01T03:17:54;2.40;;;2.30;;
2656;SDS011;1338;48.176;11.792;2022-07-01T03:20:22;3.07;;;2.77;;
2656;SDS011;1338;48.176;11.792;2022-07-01T03:22:52;3.50;;;3.00;;
2656;SDS011;1338;48.176;11.792;2022-07-01T03:25:20;3.03;;;2.83;;
2656;SDS011;1338;48.176;11.792;2022-07-01T03:27:48;2.97;;;2.60;;
2656;SDS011;1338;48.176;11.792;2022-07-01T03:30:16;2.70;;;2.50;;
2656;SDS011;1338;48.176;11.792;2022-07-01T03:32:45;2.53;;;2.43;;
2656;SDS011;1338;48.176;11.792;2022-07-01T03:35:14;2.50;;;2.40;;
2656;SDS011;1338;48.176;11.792;2022-07-01T03:38:01;3.17;;;2.80;;
2656;SDS011;1338;48.176;11.792;2022-07-01T03:40:30;2.67;;;2.47;;
2656;SDS011;1338;48.176;11.792;2022-07-01T03:42:59;2.97;;;2.77;;
2656;SDS011;1338;48.176;11.792;2022-07-01T03:45:28;3.20;;;3.00;;
2656;SDS011;1338;48.176;11.792;2022-07-01T03:47:57;3.10;;;2.90;;
2656;SDS011;1338;48.176;11.792;2022-07-01T03:50:26;3.00;;;2.80;;
2656;SDS011;1338;48.176;11.792;2022-07-01T03:52:54;2.70;;;2.50;;
2656;SDS011;1338;48.176;11.792;2022-07-01T03:55:56;2.43;;;2.33;;
2656;SDS011;1338;48.176;11.792;2022-07-01T03:58:24;3.00;;;2.80;;
2656;SDS011;1338;48.176;11.792;2022-07-01T04:00:52;2.80;;;2.60;;
2656;SDS011;1338;48.176;11.792;2022-07-01T04:03:20;3.00;;;2.80;;
2656;SDS011;1338;48.176;11.792;2022-07-01T04:05:49;3.20;;;2.90;;
2656;SDS011;1338;48.176;11.792;2022-07-01T04:08:17;3.00;;;2.80;;
2656;SDS011;1338;48.176;11.792;2022-07-01T04:10:45;2.80;;;2.60;;
2656;SDS011;1338;48.176;11.792;2022-07-01T04:13:16;3.00;;;2.80;;
2656;SDS011;1338;48.176;11.792;2022-07-01T04:15:59;3.10;;;2.90;;
2656;SDS011;1338;48.176;11.792;2022-07-01T04:18:28;2.87;;;2.67;;
2656;SDS011;1338;48.176;11.792;2022-07-01T04:20:57;3.50;;;3.20;;
2656;SDS011;1338;48.176;11.792;2022-07-01T04:23:43;3.00;;;2.80;;
2656;SDS011;1338;48.176;11.792;2022-07-01T04:26:12;3.10;;;2.90;;
2656;SDS011;1338;48.176;11.792;2022-07-01T04:29:01;3.00;;;2.73;;
2656;SDS011;1338;48.176;11.792;2022-07-01T04:31:30;2.90;;;2.70;;
2656;SDS011;1338;48.176;11.792;2022-07-01T04:33:59;2.80;;;2.60;;
2656;SDS011;1338;48.176;11.792;2022-07-01T04:36:27;3.27;;;3.07;;
2656;SDS011;1338;48.176;11.792;2022-07-01T04:38:56;2.93;;;2.73;;
2656;SDS011;1338;48.176;11.792;2022-07-01T04:41:24;3.00;;;2.80;;
2656;SDS011;1338;48.176;11.792;2022-07-01T04:44:11;2.90;;;2.60;;
2656;SDS011;1338;48.176;11.792;2022-07-01T04:46:40;2.90;;;2.70;;
2656;SDS011;1338;48.176;11.792;2022-07-01T04:49:08;2.93;;;2.73;;
2656;SDS011;1338;48.176;11.792;2022-07-01T04:51:37;3.17;;;2.90;;
2656;SDS011;1338;48.176;11.792;2022-07-01T04:54:05;3.40;;;3.10;;
2656;SDS011;1338;48.176;11.792;2022-07-01T04:56:35;3.33;;;3.13;;
2656;SDS011;1338;48.176;11.792;2022-07-01T04:59:09;3.27;;;3.07;;
2656;SDS011;1338;48.176;11.792;2022-07-01T05:01:40;3.20;;;3.00;;
2656;SDS011;1338;48.176;11.792;2022-07-01T05:04:08;3.20;;;3.00;;
2656;SDS011;1338;48.176;11.792;2022-07-01T05:06:37;3.43;;;2.83;;
2656;SDS011;1338;48.176;11.792;2022-07-01T05:09:05;3.10;;;2.77;;
2656;SDS011;1338;48.176;11.792;2022-07-01T05:11:34;3.10;;;2.80;;
2656;SDS011;1338;48.176;11.792;2022-07-01T05:14:02;2.77;;;2.60;;
2656;SDS011;1338;48.176;11.792;2022-07-01T05:16:32;3.00;;;2.70;;
2656;SDS011;1338;48.176;11.792;2022-07-01T05:19:01;2.50;;;2.30;;
2656;SDS011;1338;48.176;11.792;2022-07-01T05:21:47;2.60;;;2.40;;
2656;SDS011;1338;48.176;11.792;2022-07-01T05:24:25;3.20;;;2.70;;
2656;SDS011;1338;48.176;11.792;2022-07-01T05:26:57;2.80;;;2.60;;
2656;SDS011;1338;48.176;11.792;2022-07-01T05:29:26;2.70;;;2.50;;
2656;SDS011;1338;48.176;11.792;2022-07-01T05:31:56;3.07;;;2.83;;
2656;SDS011;1338;48.176;11.792;2022-07-01T05:34:25;2.63;;;2.43;;
2656;SDS011;1338;48.176;11.792;2022-07-01T05:36:53;2.63;;;2.43;;
2656;SDS011;1338;48.176;11.792;2022-07-01T05:39:21;2.77;;;2.57;;
2656;SDS011;1338;48.176;11.792;2022-07-01T05:41:49;2.73;;;2.53;;
2656;SDS011;1338;48.176;11.792;2022-07-01T05:44:18;2.60;;;2.40;;
2656;SDS011;1338;48.176;11.792;2022-07-01T05:46:48;2.77;;;2.57;;
2656;SDS011;1338;48.176;11.792;2022-07-01T05:49:17;3.83;;;2.93;;
2656;SDS011;1338;48.176;11.792;2022-07-01T05:51:46;2.67;;;2.33;;
2656;SDS011;1338;48.176;11.792;2022-07-01T05:54:14;2.27;;;2.10;;
2656;SDS011;1338;48.176;11.792;2022-07-01T05:56:42;2.80;;;2.60;;
2656;SDS011;1338;48.176;11.792;2022-07-01T05:59:10;2.73;;;2.53;;
2656;SDS011;1338;48.176;11.792;2022-07-01T06:01:40;3.20;;;3.00;;
2656;SDS011;1338;48.176;11.792;2022-07-01T06:04:08;2.60;;;2.47;;
2656;SDS011;1338;48.176;11.792;2022-07-01T06:06:38;2.93;;;2.73;;
2656;SDS011;1338;48.176;11.792;2022-07-01T06:09:07;4.53;;;2.97;;
2656;SDS011;1338;48.176;11.792;2022-07-01T06:11:35;3.80;;;2.63;;
2656;SDS011;1338;48.176;11.792;2022-07-01T06:14:03;2.80;;;2.60;;
2656;SDS011;1338;48.176;11.792;2022-07-01T06:16:32;3.33;;;3.10;;
2656;SDS011;1338;48.176;11.792;2022-07-01T06:19:00;4.00;;;2.67;;
2656;SDS011;1338;48.176;11.792;2022-07-01T06:21:28;2.73;;;2.53;;
2656;SDS011;1338;48.176;11.792;2022-07-01T06:23:58;2.93;;;2.73;;
2656;SDS011;1338;48.176;11.792;2022-07-01T06:26:27;3.13;;;2.83;;
2656;SDS011;1338;48.176;11.792;2022-07-01T06:28:55;3.13;;;2.93;;
2656;SDS011;1338;48.176;11.792;2022-07-01T06:31:23;2.90;;;2.70;;
2656;SDS011;1338;48.176;11.792;2022-07-01T06:33:51;2.90;;;2.70;;
2656;SDS011;1338;48.176;11.792;2022-07-01T06:36:20;3.03;;;2.83;;
2656;SDS011;1338;48.176;11.792;2022-07-01T06:38:48;3.07;;;2.87;;
2656;SDS011;1338;48.176;11.792;2022-07-01T06:41:18;2.70;;;2.60;;
2656;SDS011;1338;48.176;11.792;2022-07-01T06:43:55;3.03;;;2.73;;
2656;SDS011;1338;48.176;11.792;2022-07-01T06:46:24;2.80;;;2.60;;
2656;SDS011;1338;48.176;11.792;2022-07-01T06:48:53;3.37;;;3.10;;
2656;SDS011;1338;48.176;11.792;2022-07-01T06:51:22;3.30;;;3.00;;
2656;SDS011;1338;48.176;11.792;2022-07-01T06:53:50;3.03;;;2.83;;
2656;SDS011;1338;48.176;11.792;2022-07-01T06:56:20;3.17;;;2.97;;
2656;SDS011;1338;48.176;11.792;2022-07-01T06:58:49;2.93;;;2.73;;
2656;SDS011;1338;48.176;11.792;2022-07-01T07:01:17;3.40;;;3.20;;
2656;SDS011;1338;48.176;11.792;2022-07-01T07:03:45;3.07;;;2.87;;
2656;SDS011;1338;48.176;11.792;2022-07-01T07:06:13;2.87;;;2.57;;
2656;SDS011;1338;48.176;11.792;2022-07-01T07:08:42;3.20;;;2.77;;
2656;SDS011;1338;48.176;11.792;2022-07-01T07:11:10;3.23;;;2.90;;
2656;SDS011;1338;48.176;11.792;2022-07-01T07:13:42;3.67;;;3.10;;
2656;SDS011;1338;48.176;11.792;2022-07-01T07:16:11;3.17;;;2.97;;
2656;SDS011;1338;48.176;11.792;2022-07-01T07:18:39;2.90;;;2.70;;
2656;SDS011;1338;48.176;11.792;2022-07-01T07:21:07;3.10;;;2.90;;
2656;SDS011;1338;48.176;11.792;2022-07-01T07:23:36;3.17;;;2.97;;
2656;SDS011;1338;48.176;11.792;2022-07-01T07:26:04;3.30;;;3.03;;
2656;SDS011;1338;48.176;11.792;2022-07-01T07:28:32;2.93;;;2.73;;
2656;SDS011;1338;48.176;11.792;2022-07-01T07:31:02;3.40;;;3.20;;
2656;SDS011;1338;48.176;11.792;2022-07-01T07:33:30;3.30;;;3.00;;
2656;SDS011;1338;48.176;11.792;2022-07-01T07:35:59;3.40;;;3.20;;
2656;SDS011;1338;48.176;11.792;2022-07-01T07:38:27;3.10;;;2.80;;
2656;SDS011;1338;48.176;11.792;2022-07-01T07:40:55;3.30;;;2.90;;
2656;SDS011;1338;48.176;11.792;2022-07-01T07:43:25;3.20;;;3.00;;
2656;SDS011;1338;48.176;11.792;2022-07-01T07:45:53;3.43;;;3.13;;
2656;SDS011;1338;48.176;11.792;2022-07-01T07:48:23;2.80;;;2.70;;
2656;SDS011;1338;48.176;11.792;2022-07-01T07:50:51;2.80;;;2.70;;
2656;SDS011;1338;48.176;11.792;2022-07-01T07:53:20;3.73;;;2.93;;
2656;SDS011;1338;48.176;11.792;2022-07-01T07:55:48;3.17;;;2.97;;
2656;SDS011;1338;48.176;11.792;2022-07-01T07:58:16;2.83;;;2.63;;
2656;SDS011;1338;48.176;11.792;2022-07-01T08:00:45;3.00;;;2.80;;
2656;SDS011;1338;48.176;11.792;2022-07-01T08:03:13;5.30;;;4.80;;
2656;SDS011;1338;48.176;11.792;2022-07-01T08:05:43;6.20;;;5.70;;
2656;SDS011;1338;48.176;11.792;2022-07-01T08:08:12;6.03;;;5.63;;
2656;SDS011;1338;48.176;11.792;2022-07-01T08:10:45;6.90;;;6.40;;
2656;SDS011;1338;48.176;11.792;2022-07-01T08:13:13;6.87;;;6.47;;
2656;SDS011;1338;48.176;11.792;2022-07-01T08:15:42;6.67;;;6.27;;
2656;SDS011;1338;48.176;11.792;2022-07-01T08:18:10;5.97;;;5.57;;
2656;SDS011;1338;48.176;11.792;2022-07-01T08:20:38;5.80;;;5.30;;
2656;SDS011;1338;48.176;11.792;2022-07-01T08:23:08;4.90;;;4.50;;
2656;SDS011;1338;48.176;11.792;2022-07-01T08:25:38;5.10;;;4.03;;
2656;SDS011;1338;48.176;11.792;2022-07-01T08:28:06;4.10;;;3.80;;
2656;SDS011;1338;48.176;11.792;2022-07-01T08:30:34;4.10;;;3.80;;
2656;SDS011;1338;48.176;11.792;2022-07-01T08:33:02;4.90;;;4.03;;
2656;SDS011;1338;48.176;11.792;2022-07-01T08:35:31;4.23;;;3.83;;
2656;SDS011;1338;48.176;11.792;2022-07-01T08:37:59;4.43;;;4.13;;
2656;SDS011;1338;48.176;11.792;2022-07-01T08:40:30;5.30;;;4.90;;
2656;SDS011;1338;48.176;11.792;2022-07-01T08:42:59;5.63;;;5.13;;
2656;SDS011;1338;48.176;11.792;2022-07-01T08:45:28;4.50;;;4.17;;
2656;SDS011;1338;48.176;11.792;2022-07-01T08:47:58;3.47;;;3.27;;
2656;SDS011;1338;48.176;11.792;2022-07-01T08:50:28;2.70;;;2.50;;
2656;SDS011;1338;48.176;11.792;2022-07-01T08:52:58;2.80;;;2.60;;
2656;SDS011;1338;48.176;11.792;2022-07-01T08:55:26;3.00;;;2.80;;
2656;SDS011;1338;48.176;11.792;2022-07-01T08:57:56;2.53;;;2.33;;
2656;SDS011;1338;48.176;11.792;2022-07-01T09:00:31;3.83;;;2.40;;
2656;SDS011;1338;48.176;11.792;2022-07-01T09:03:01;2.50;;;2.30;;
2656;SDS011;1338;48.176;11.792;2022-07-01T09:05:30;2.70;;;2.50;;
2656;SDS011;1338;48.176;11.792;2022-07-01T09:07:59;2.70;;;2.50;;
2656;SDS011;1338;48.176;11.792;2022-07-01T09:10:30;3.40;;;3.10;;
2656;SDS011;1338;48.176;11.792;2022-07-01T09:13:04;3.90;;;3.60;;
2656;SDS011;1338;48.176;11.792;2022-07-01T09:15:35;3.57;;;3.30;;
2656;SDS011;1338;48.176;11.792;2022-07-01T09:18:04;3.53;;;3.27;;
2656;SDS011;1338;48.176;11.792;2022-07-01T09:20:35;3.47;;;3.03;;
2656;SDS011;1338;48.176;11.792;2022-07-01T09:23:05;3.90;;;3.60;;
2656;SDS011;1338;48.176;11.792;2022-07-01T09:25:36;3.10;;;2.90;;
2656;SDS011;1338;48.176;11.792;2022-07-01T09:28:17;3.20;;;3.00;;
2656;SDS011;1338;48.176;11.792;2022-07-01T09:30:47;4.63;;;2.97;;
2656;SDS011;1338;48.176;11.792;2022-07-01T09:33:17;3.70;;;3.40;;
2656;SDS011;1338;48.176;11.792;2022-07-01T09:35:47;3.77;;;2.70;;
2656;SDS011;1338;48.176;11.792;2022-07-01T09:38:17;2.73;;;2.53;;
2656;SDS011;1338;48.176;11.792;2022-07-01T09:41:00;2.93;;;2.70;;
2656;SDS011;1338;48.176;11.792;2022-07-01T09:43:30;2.40;;;2.30;;
2656;SDS011;1338;48.176;11.792;2022-07-01T09:46:01;2.90;;;2.60;;
2656;SDS011;1338;48.176;11.792;2022-07-01T09:48:43;2.67;;;2.47;;
2656;SDS011;1338;48.176;11.792;2022-07-01T09:51:13;2.57;;;2.37;;
2656;SDS011;1338;48.176;11.792;2022-07-01T09:53:43;4.40;;;2.53;;
2656;SDS011;1338;48.176;11.792;2022-07-01T09:56:13;2.70;;;2.50;;
2656;SDS011;1338;48.176;11.792;2022-07-01T09:58:41;3.20;;;2.37;;
2656;SDS011;1338;48.176;11.792;2022-07-01T10:01:10;2.33;;;2.23;;
2656;SDS011;1338;48.176;11.792;2022-07-01T10:03:39;2.37;;;2.17;;
2656;SDS011;1338;48.176;11.792;2022-07-01T10:06:12;2.60;;;2.40;;
2656;SDS011;1338;48.176;11.792;2022-07-01T10:09:09;3.40;;;2.43;;
2656;SDS011;1338;48.176;11.792;2022-07-01T10:11:57;2.50;;;2.30;;
2656;SDS011;1338;48.176;11.792;2022-07-01T10:14:36;2.60;;;2.40;;
2656;SDS011;1338;48.176;11.792;2022-07-01T10:17:07;2.70;;;2.50;;
2656;SDS011;1338;48.176;11.792;2022-07-01T10:19:35;2.67;;;2.47;;
2656;SDS011;1338;48.176;11.792;2022-07-01T10:24:54;2.70;;;2.50;;
2656;SDS011;1338;48.176;11.792;2022-07-01T10:27:24;2.50;;;2.40;;
2656;SDS011;1338;48.176;11.792;2022-07-01T10:32:46;2.87;;;2.60;;
2656;SDS011;1338;48.176;11.792;2022-07-01T10:35:35;2.40;;;2.30;;
2656;SDS011;1338;48.176;11.792;2022-07-01T10:38:04;2.73;;;2.53;;
2656;SDS011;1338;48.176;11.792;2022-07-01T10:40:39;2.50;;;2.40;;
2656;SDS011;1338;48.176;11.792;2022-07-01T10:43:15;2.13;;;2.03;;
2656;SDS011;1338;48.176;11.792;2022-07-01T10:45:57;2.67;;;2.47;;
2656;SDS011;1338;48.176;11.792;2022-07-01T10:48:25;2.80;;;2.60;;
2656;SDS011;1338;48.176;11.792;2022-07-01T10:50:57;3.60;;;3.40;;
2656;SDS011;1338;48.176;11.792;2022-07-01T10:53:29;3.10;;;2.90;;
2656;SDS011;1338;48.176;11.792;2022-07-01T10:56:18;3.27;;;3.07;;
2656;SDS011;1338;48.176;11.792;2022-07-01T10:58:47;3.33;;;3.13;;
2656;SDS011;1338;48.176;11.792;2022-07-01T11:01:29;3.07;;;2.87;;
2656;SDS011;1338;48.176;11.792;2022-07-01T11:03:58;3.30;;;3.10;;
2656;SDS011;1338;48.176;11.792;2022-07-01T11:06:27;3.40;;;3.20;;
2656;SDS011;1338;48.176;11.792;2022-07-01T11:08:58;3.87;;;3.67;;
2656;SDS011;1338;48.176;11.792;2022-07-01T11:11:26;3.80;;;3.60;;
2656;SDS011;1338;48.176;11.792;2022-07-01T11:13:57;3.60;;;3.30;;
2656;SDS011;1338;48.176;11.792;2022-07-01T11:16:27;3.63;;;3.33;;
2656;SDS011;1338;48.176;11.792;2022-07-01T11:18:57;3.40;;;3.20;;
2656;SDS011;1338;48.176;11.792;2022-07-01T11:21:25;3.27;;;3.07;;
2656;SDS011;1338;48.176;11.792;2022-07-01T11:23:53;4.63;;;3.13;;
2656;SDS011;1338;48.176;11.792;2022-07-01T11:26:23;2.90;;;2.70;;
2656;SDS011;1338;48.176;11.792;2022-07-01T11:28:52;3.23;;;3.03;;
2656;SDS011;1338;48.176;11.792;2022-07-01T11:31:29;3.47;;;3.17;;
2656;SDS011;1338;48.176;11.792;2022-07-01T11:33:58;3.10;;;2.90;;
2656;SDS011;1338;48.176;11.792;2022-07-01T11:36:26;3.37;;;2.90;;
2656;SDS011;1338;48.176;11.792;2022-07-01T11:39:12;2.93;;;2.73;;
2656;SDS011;1338;48.176;11.792;2022-07-01T11:41:54;3.40;;;2.90;;
2656;SDS011;1338;48.176;11.792;2022-07-01T11:44:28;3.50;;;2.57;;
2656;SDS011;1338;48.176;11.792;2022-07-01T11:46:59;3.03;;;2.83;;
2656;SDS011;1338;48.176;11.792;2022-07-01T11:49:27;3.30;;;3.00;;
2656;SDS011;1338;48.176;11.792;2022-07-01T11:51:56;3.67;;;3.37;;
2656;SDS011;1338;48.176;11.792;2022-07-01T11:54:26;3.63;;;3.40;;
2656;SDS011;1338;48.176;11.792;2022-07-01T11:56:54;3.40;;;3.03;;
2656;SDS011;1338;48.176;11.792;2022-07-01T11:59:34;3.50;;;3.30;;
2656;SDS011;1338;48.176;11.792;2022-07-01T12:02:07;3.70;;;3.40;;
2656;SDS011;1338;48.176;11.792;2022-07-01T12:04:37;4.27;;;3.90;;
2656;SDS011;1338;48.176;11.792;2022-07-01T12:07:07;3.33;;;3.10;;
2656;SDS011;1338;48.176;11.792;2022-07-01T12:09:36;3.50;;;3.20;;
2656;SDS011;1338;48.176;11.792;2022-07-01T12:12:07;3.43;;;3.03;;
2656;SDS011;1338;48.176;11.792;2022-07-01T12:14:49;3.77;;;3.03;;
2656;SDS011;1338;48.176;11.792;2022-07-01T12:17:20;4.37;;;3.70;;
2656;SDS011;1338;48.176;11.792;2022-07-01T12:19:49;3.80;;;3.60;;
2656;SDS011;1338;48.176;11.792;2022-07-01T12:22:19;3.67;;;3.40;;
2656;SDS011;1338;48.176;11.792;2022-07-01T12:24:50;3.60;;;3.30;;
2656;SDS011;1338;48.176;11.792;2022-07-01T12:27:19;3.70;;;3.30;;
2656;SDS011;1338;48.176;11.792;2022-07-01T12:29:50;3.43;;;3.13;;
2656;SDS011;1338;48.176;11.792;2022-07-01T12:32:22;3.60;;;3.40;;
2656;SDS011;1338;48.176;11.792;2022-07-01T12:34:53;4.33;;;4.03;;
2656;SDS011;1338;48.176;11.792;2022-07-01T12:37:27;4.50;;;4.13;;
2656;SDS011;1338;48.176;11.792;2022-07-01T12:39:58;3.83;;;3.53;;
2656;SDS011;1338;48.176;11.792;2022-07-01T12:42:28;3.23;;;3.03;;
2656;SDS011;1338;48.176;11.792;2022-07-01T12:44:58;3.20;;;3.00;;
2656;SDS011;1338;48.176;11.792;2022-07-01T12:47:30;3.47;;;3.27;;
2656;SDS011;1338;48.176;11.792;2022-07-01T12:50:14;3.40;;;3.20;;
2656;SDS011;1338;48.176;11.792;2022-07-01T12:52:44;3.57;;;3.37;;
2656;SDS011;1338;48.176;11.792;2022-07-01T12:55:24;3.33;;;3.00;;
2656;SDS011;1338;48.176;11.792;2022-07-01T12:57:53;3.40;;;3.13;;
2656;SDS011;1338;48.176;11.792;2022-07-01T13:00:25;2.97;;;2.77;;
2656;SDS011;1338;48.176;11.792;2022-07-01T13:02:58;3.87;;;3.50;;
2656;SDS011;1338;48.176;11.792;2022-07-01T13:05:30;3.43;;;3.23;;
2656;SDS011;1338;48.176;11.792;2022-07-01T13:07:59;4.20;;;3.90;;
2656;SDS011;1338;48.176;11.792;2022-07-01T13:10:28;4.73;;;4.33;;
2656;SDS011;1338;48.176;11.792;2022-07-01T13:12:57;6.30;;;4.23;;
2656;SDS011;1338;48.176;11.792;2022-07-01T13:15:26;4.73;;;4.33;;
2656;SDS011;1338;48.176;11.792;2022-07-01T13:17:54;5.40;;;4.63;;
2656;SDS011;1338;48.176;11.792;2022-07-01T13:20:24;4.60;;;4.20;;
2656;SDS011;1338;48.176;11.792;2022-07-01T13:22:52;5.37;;;4.87;;
2656;SDS011;1338;48.176;11.792;2022-07-01T13:25:21;3.60;;;3.40;;
2656;SDS011;1338;48.176;11.792;2022-07-01T13:27:49;4.77;;;4.47;;
2656;SDS011;1338;48.176;11.792;2022-07-01T13:30:17;4.40;;;4.00;;
2656;SDS011;1338;48.176;11.792;2022-07-01T13:32:47;2.80;;;2.60;;
2656;SDS011;1338;48.176;11.792;2022-07-01T13:35:19;4.77;;;4.37;;
2656;SDS011;1338;48.176;11.792;2022-07-01T13:37:49;4.17;;;3.87;;
2656;SDS011;1338;48.176;11.792;2022-07-01T13:40:18;3.20;;;3.00;;
2656;SDS011;1338;48.176;11.792;2022-07-01T13:42:48;4.63;;;4.30;;
2656;SDS011;1338;48.176;11.792;2022-07-01T13:45:16;5.20;;;4.90;;
2656;SDS011;1338;48.176;11.792;2022-07-01T13:47:44;5.20;;;4.80;;
2656;SDS011;1338;48.176;11.792;2022-07-01T13:50:13;5.13;;;4.63;;
2656;SDS011;1338;48.176;11.792;2022-07-01T13:52:45;4.50;;;4.20;;
2656;SDS011;1338;48.176;11.792;2022-07-01T13:55:15;6.03;;;3.97;;
2656;SDS011;1338;48.176;11.792;2022-07-01T13:57:44;4.40;;;4.10;;
2656;SDS011;1338;48.176;11.792;2022-07-01T14:00:13;4.50;;;4.20;;
2656;SDS011;1338;48.176;11.792;2022-07-01T14:02:42;5.27;;;4.77;;
2656;SDS011;1338;48.176;11.792;2022-07-01T14:05:10;4.83;;;4.43;;
2656;SDS011;1338;48.176;11.792;2022-07-01T14:07:39;3.47;;;3.20;;
2656;SDS011;1338;48.176;11.792;2022-07-01T14:10:08;4.57;;;4.27;;
2656;SDS011;1338;48.176;11.792;2022-07-01T14:12:38;4.90;;;4.50;;
2656;SDS011;1338;48.176;11.792;2022-07-01T14:15:07;4.23;;;3.93;;
2656;SDS011;1338;48.176;11.792;2022-07-01T14:17:36;4.93;;;4.30;;
2656;SDS011;1338;48.176;11.792;2022-07-01T14:20:05;4.10;;;3.80;;
2656;SDS011;1338;48.176;11.792;2022-07-01T14:22:36;4.93;;;4.53;;
2656;SDS011;1338;48.176;11.792;2022-07-01T14:25:05;4.60;;;4.30;;
2656;SDS011;1338;48.176;11.792;2022-07-01T14:27:33;4.93;;;4.63;;
2656;SDS011;1338;48.176;11.792;2022-07-01T14:30:04;6.10;;;4.83;;
2656;SDS011;1338;48.176;11.792;2022-07-01T14:32:33;4.50;;;4.20;;
2656;SDS011;1338;48.176;11.792;2022-07-01T14:35:02;5.53;;;4.67;;
2656;SDS011;1338;48.176;11.792;2022-07-01T14:37:31;4.83;;;4.43;;
2656;SDS011;1338;48.176;11.792;2022-07-01T14:39:59;4.70;;;4.30;;
2656;SDS011;1338;48.176;11.792;2022-07-01T14:42:28;3.60;;;3.30;;
2656;SDS011;1338;48.176;11.792;2022-07-01T14:44:56;5.40;;;4.90;;
2656;SDS011;1338;48.176;11.792;2022-07-01T14:47:26;5.40;;;4.90;;
2656;SDS011;1338;48.176;11.792;2022-07-01T14:49:54;5.57;;;5.17;;
2656;SDS011;1338;48.176;11.792;2022-07-01T14:52:23;5.67;;;5.27;;
2656;SDS011;1338;48.176;11.792;2022-07-01T14:54:52;6.00;;;5.50;;
2656;SDS011;1338;48.176;11.792;2022-07-01T14:57:21;5.50;;;5.00;;
2656;SDS011;1338;48.176;11.792;2022-07-01T14:59:49;6.50;;;5.90;;
2656;SDS011;1338;48.176;11.792;2022-07-01T15:02:18;5.60;;;5.20;;
2656;SDS011;1338;48.176;11.792;2022-07-01T15:04:48;6.20;;;5.70;;
2656;SDS011;1338;48.176;11.792;2022-07-01T15:07:16;4.10;;;3.80;;
2656;SDS011;1338;48.176;11.792;2022-07-01T15:09:45;5.80;;;5.30;;
2656;SDS011;1338;48.176;11.792;2022-07-01T15:12:13;5.80;;;5.40;;
2656;SDS011;1338;48.176;11.792;2022-07-01T15:14:41;4.80;;;4.40;;
2656;SDS011;1338;48.176;11.792;2022-07-01T15:17:10;4.80;;;4.30;;
2656;SDS011;1338;48.176;11.792;2022-07-01T15:19:38;4.97;;;4.57;;
2656;SDS011;1338;48.176;11.792;2022-07-01T15:22:08;5.00;;;4.60;;
2656;SDS011;1338;48.176;11.792;2022-07-01T15:24:37;5.30;;;4.90;;